Time;durP1;ratioP1;P1;durP2;ratioP2;P2;SDS_P1;SDS_P2;PMS_P1;PMS_P2;Temp;Humidity;BMP_temperature;BMP_pressure;BME280_temperature;BME280_humidity;BME280_pressure;Samples;Min_cycle;Max_cycle;Signal;HPM_P1;HPM_P2
2023/09/23 00:00:57;;;;;;;23.15;8.57;;;;;;;-143.21;73.38;71522.94;5068109;28;20206;-76
2023/09/23 00:03:25;;;;;;;22.77;9.13;;;;;;;-143.21;73.02;71516.97;5067539;28;20296;-78
2023/09/23 00:05:52;;;;;;;18.65;8.50;;;;;;;-143.21;73.13;71520.94;5066942;28;20201;-76
2023/09/23 00:08:19;;;;;;;25.60;9.18;;;;;;;-143.21;73.29;71520.94;5066258;28;20205;-76
2023/09/23 00:10:47;;;;;;;21.13;8.40;;;;;;;-143.21;73.59;71526.91;5067191;28;20221;-77
2023/09/23 00:13:15;;;;;;;22.15;9.55;;;;;;;-143.21;74.11;71518.97;5065793;28;20274;-76
2023/09/23 00:15:42;;;;;;;19.85;8.00;;;;;;;-143.21;74.02;71511.03;5067124;28;20205;-77
2023/09/23 00:18:09;;;;;;;19.17;8.02;;;;;;;-143.21;73.51;71499.13;5067128;28;20212;-77
2023/09/23 00:20:38;;;;;;;17.00;8.15;;;;;;;-143.21;73.12;71491.22;5066574;28;20201;-77
2023/09/23 00:23:06;;;;;;;23.63;8.48;;;;;;;-143.21;73.73;71511.03;5069143;28;20636;-77
2023/09/23 00:25:34;;;;;;;17.02;8.30;;;;;;;-143.21;73.70;71524.91;5069955;28;20229;-77
2023/09/23 00:28:01;;;;;;;22.40;9.27;;;;;;;-143.21;74.15;71532.84;5069635;28;20212;-76
2023/09/23 00:30:29;;;;;;;23.30;8.38;;;;;;;-143.21;74.44;71538.78;5070931;28;20695;-76
2023/09/23 00:32:56;;;;;;;21.98;8.50;;;;;;;-143.21;74.43;71540.78;5097319;28;20228;-76
2023/09/23 00:35:23;;;;;;;23.92;8.32;;;;;;;-143.21;73.94;71544.75;5110918;28;20662;-77
2023/09/23 00:37:50;;;;;;;22.60;8.52;;;;;;;-143.21;74.29;71556.63;5111181;28;20214;-77
2023/09/23 00:40:24;;;;;;;25.40;8.68;;;;;;;-143.21;74.37;71562.59;5111094;28;20207;-77
2023/09/23 00:42:51;;;;;;;27.42;7.70;;;;;;;-143.21;74.15;71562.59;5111095;28;20432;-77
2023/09/23 00:45:22;;;;;;;21.08;8.07;;;;;;;-143.21;74.78;71572.50;5110537;28;20192;-77
2023/09/23 00:47:51;;;;;;;19.38;8.27;;;;;;;-143.21;74.72;71570.53;5111036;28;20505;-77
2023/09/23 00:50:19;;;;;;;19.05;7.88;;;;;;;-143.21;74.33;71572.50;5109821;28;20297;-76
2023/09/23 00:52:49;;;;;;;22.63;8.63;;;;;;;-143.21;74.38;71568.53;5110928;28;20244;-77
2023/09/23 00:55:17;;;;;;;21.65;8.30;;;;;;;-143.21;74.15;71568.53;5110286;28;20211;-77
2023/09/23 00:57:47;;;;;;;21.98;8.15;;;;;;;-143.21;74.13;71564.56;5110794;28;20200;-77
2023/09/23 01:00:15;;;;;;;24.88;7.93;;;;;;;-143.21;73.92;71562.59;5110339;28;20200;-77
2023/09/23 01:02:42;;;;;;;22.88;8.25;;;;;;;-143.21;74.12;71554.66;5110489;28;20200;-76
2023/09/23 01:05:11;;;;;;;17.83;8.20;;;;;;;-143.21;74.82;71566.56;5109821;28;20207;-77
2023/09/23 01:07:40;;;;;;;16.90;8.45;;;;;;;-143.21;74.91;71570.53;5110745;28;20215;-77
2023/09/23 01:10:07;;;;;;;24.58;8.65;;;;;;;-143.21;75.01;71566.56;5109945;28;20202;-77
2023/09/23 01:12:34;;;;;;;18.40;8.35;;;;;;;-143.21;75.29;71572.50;5110630;28;20202;-77
2023/09/23 01:15:17;;;;;;;19.60;8.68;;;;;;;-143.21;75.08;71572.50;5110413;28;20678;-77
2023/09/23 01:17:46;;;;;;;26.08;8.35;;;;;;;-143.21;75.51;71576.47;5109881;28;20210;-77
2023/09/23 01:20:16;;;;;;;16.65;8.07;;;;;;;-143.21;75.35;71574.47;5109813;28;20204;-78
2023/09/23 01:22:44;;;;;;;15.13;7.93;;;;;;;-143.21;75.24;71572.50;5110022;28;20257;-77
2023/09/23 01:25:11;;;;;;;17.10;8.45;;;;;;;-143.21;75.49;71580.44;5110172;28;20200;-77
2023/09/23 01:27:37;;;;;;;17.77;7.60;;;;;;;-143.21;75.71;71578.44;5109946;28;20208;-77
2023/09/23 01:30:06;;;;;;;17.88;7.88;;;;;;;-143.21;75.06;71576.47;5110027;28;20208;-77
2023/09/23 01:32:46;;;;;;;21.95;7.95;;;;;;;-143.21;75.15;71584.41;5109879;28;20254;-79
2023/09/23 01:35:15;;;;;;;19.65;8.55;;;;;;;-143.21;75.48;71576.47;5109366;28;20191;-78
2023/09/23 01:37:42;;;;;;;13.57;7.85;;;;;;;-143.21;75.20;71578.44;5110027;28;20200;-76
2023/09/23 01:40:16;;;;;;;19.75;8.35;;;;;;;-143.21;75.22;71584.41;5109313;28;20200;-78
2023/09/23 01:42:43;;;;;;;15.88;7.97;;;;;;;-143.21;75.51;71596.28;5109807;28;20196;-77
2023/09/23 01:45:12;;;;;;;13.45;8.13;;;;;;;-143.21;75.20;71590.34;5107156;28;20283;-76
2023/09/23 01:47:40;;;;;;;21.10;8.30;;;;;;;-143.21;75.26;71598.28;5108497;28;20200;-75
2023/09/23 01:50:09;;;;;;;28.38;8.13;;;;;;;-143.21;75.83;71600.25;5108528;28;20200;-77
2023/09/23 01:52:36;;;;;;;21.35;8.05;;;;;;;-143.21;75.87;71604.22;5110189;28;20670;-77
2023/09/23 01:55:04;;;;;;;22.50;8.00;;;;;;;-143.21;75.09;71600.25;5109158;28;20829;-78
2023/09/23 01:57:33;;;;;;;18.08;7.10;;;;;;;-143.21;75.46;71598.28;5109768;28;20295;-78
2023/09/23 02:00:01;;;;;;;17.73;7.75;;;;;;;-143.21;75.12;71592.31;5109817;28;20277;-77
2023/09/23 02:02:28;;;;;;;15.85;7.45;;;;;;;-143.21;75.07;71600.25;5106538;28;20200;-77
2023/09/23 02:04:56;;;;;;;15.40;8.50;;;;;;;-143.21;75.38;71600.25;5106264;28;20204;-78
2023/09/23 02:07:23;;;;;;;26.58;8.48;;;;;;;-143.21;75.48;71604.22;5109212;28;20265;-76
2023/09/23 02:09:50;;;;;;;20.02;8.35;;;;;;;-143.21;75.12;71610.16;5109715;28;20208;-76
2023/09/23 02:12:16;;;;;;;19.90;8.63;;;;;;;-143.21;75.41;71618.09;5109477;28;20738;-76
2023/09/23 02:14:45;;;;;;;19.52;8.30;;;;;;;-143.21;75.62;71614.13;5109596;28;20223;-76
2023/09/23 02:17:12;;;;;;;21.90;8.77;;;;;;;-143.21;75.83;71616.13;5108464;28;20208;-77
2023/09/23 02:19:39;;;;;;;16.00;7.85;;;;;;;-143.21;76.00;71622.06;5109231;28;20299;-77
2023/09/23 02:22:06;;;;;;;21.60;7.93;;;;;;;-143.21;76.09;71628.00;5108753;28;20701;-76
2023/09/23 02:24:33;;;;;;;17.77;8.50;;;;;;;-143.21;76.38;71637.94;5108926;28;20196;-78
2023/09/23 02:27:00;;;;;;;27.20;8.40;;;;;;;-143.21;76.27;71637.94;5109057;28;20574;-78
2023/09/23 02:29:27;;;;;;;19.23;8.00;;;;;;;-143.21;75.93;71637.94;5109767;28;20204;-77
2023/09/23 02:31:55;;;;;;;17.83;8.50;;;;;;;-143.21;76.38;71647.84;5109068;28;20224;-77
2023/09/23 02:34:22;;;;;;;24.70;8.73;;;;;;;-143.21;76.33;71657.75;5108466;28;20232;-77
2023/09/23 02:36:51;;;;;;;20.48;8.10;;;;;;;-143.21;76.59;71659.75;5109165;28;20203;-77
2023/09/23 02:39:20;;;;;;;18.52;8.57;;;;;;;-143.21;76.33;71667.66;5108889;28;20680;-78
2023/09/23 02:41:47;;;;;;;17.63;8.82;;;;;;;-143.21;76.50;71669.66;5109127;27;20227;-78
2023/09/23 02:44:18;;;;;;;25.23;10.05;;;;;;;-143.21;75.95;71667.66;5108299;28;20552;-78
2023/09/23 02:46:45;;;;;;;23.38;10.07;;;;;;;-143.21;75.32;71669.66;5108171;28;20203;-78
2023/09/23 02:49:14;;;;;;;29.25;10.05;;;;;;;-143.21;75.38;71673.63;5106445;28;20203;-78
2023/09/23 02:51:42;;;;;;;23.90;9.38;;;;;;;-143.21;75.93;71673.63;5107569;28;20254;-79
2023/09/23 02:54:11;;;;;;;24.83;9.48;;;;;;;-143.21;75.45;71673.63;5107397;28;20235;-79
2023/09/23 02:56:38;;;;;;;26.40;9.13;;;;;;;-143.21;75.83;71679.56;5108804;28;20268;-79
2023/09/23 02:59:11;;;;;;;29.58;10.25;;;;;;;-143.21;76.12;71687.50;5108648;28;20283;-78
2023/09/23 03:01:39;;;;;;;20.30;9.40;;;;;;;-143.21;76.75;71691.47;5108296;28;20246;-77
2023/09/23 03:04:16;;;;;;;25.50;10.10;;;;;;;-143.21;76.38;71693.44;5108558;28;20223;-78
2023/09/23 03:06:49;;;;;;;21.30;8.73;;;;;;;-143.21;76.17;71693.44;5108474;28;20559;-79
2023/09/23 03:09:19;;;;;;;22.85;8.55;;;;;;;-143.21;76.06;71695.44;5108233;28;21160;-78
2023/09/23 03:11:53;;;;;;;24.90;7.85;;;;;;;-143.21;76.67;71699.41;5108649;28;20291;-79
2023/09/23 03:14:22;;;;;;;20.67;9.02;;;;;;;-143.21;76.39;71701.38;5108236;28;20239;-78
2023/09/23 03:16:51;;;;;;;28.40;9.35;;;;;;;-143.21;76.54;71709.31;5108021;28;20214;-78
2023/09/23 03:19:24;;;;;;;25.55;9.25;;;;;;;-143.21;76.75;71715.25;5107967;28;20208;-79
2023/09/23 03:21:55;;;;;;;20.67;9.02;;;;;;;-143.21;76.85;71713.28;5108410;28;20196;-78
2023/09/23 03:24:22;;;;;;;27.90;9.32;;;;;;;-143.21;76.61;71711.28;5108141;28;20244;-77
2023/09/23 03:26:53;;;;;;;23.17;7.90;;;;;;;-143.21;77.32;71729.13;5108148;28;20290;-78
2023/09/23 03:29:20;;;;;;;27.20;8.50;;;;;;;-143.21;77.43;71725.16;5107421;28;20559;-77
2023/09/23 03:31:47;;;;;;;24.77;8.45;;;;;;;-143.21;77.64;71729.13;5108013;28;20243;-78
2023/09/23 03:34:14;;;;;;;19.85;8.57;;;;;;;-143.21;78.09;71735.09;5107713;28;20655;-77
2023/09/23 03:36:41;;;;;;;24.65;8.27;;;;;;;-143.21;78.16;71733.09;5107823;28;20203;-76
2023/09/23 03:39:09;;;;;;;25.80;7.97;;;;;;;-143.21;78.40;71737.06;5107488;28;20608;-77
2023/09/23 03:41:37;;;;;;;21.45;9.13;;;;;;;-143.21;78.25;71737.06;5108042;28;20232;-76
2023/09/23 03:44:05;;;;;;;23.48;8.82;;;;;;;-143.21;78.65;71735.09;5107360;28;20238;-76
2023/09/23 03:46:31;;;;;;;31.75;9.43;;;;;;;-143.21;78.56;71746.97;5108280;28;20196;-76
2023/09/23 03:49:00;;;;;;;27.30;9.02;;;;;;;-143.21;78.30;71743.00;5108091;28;20623;-76
2023/09/23 03:51:27;;;;;;;19.85;9.00;;;;;;;-143.21;78.21;71741.03;5104389;28;20207;-75
2023/09/23 03:53:53;;;;;;;18.35;8.23;;;;;;;-143.21;78.35;71743.00;5108029;28;20681;-76
2023/09/23 03:56:24;;;;;;;25.20;9.27;;;;;;;-143.21;78.48;71748.97;5110676;28;20749;-76
2023/09/23 03:58:52;;;;;;;34.50;9.48;;;;;;;-143.21;78.28;71748.97;5111611;28;20249;-76
2023/09/23 04:01:21;;;;;;;23.15;9.50;;;;;;;-143.21;78.30;71756.91;5111340;28;20211;-76
2023/09/23 04:03:48;;;;;;;20.50;8.95;;;;;;;-143.21;78.66;71764.81;5111932;28;20243;-77
2023/09/23 04:06:15;;;;;;;18.42;7.97;;;;;;;-143.21;79.00;71776.72;5111003;28;20202;-76
2023/09/23 04:08:42;;;;;;;22.65;8.95;;;;;;;-143.21;78.50;71772.75;5111741;28;20211;-76
2023/09/23 04:11:08;;;;;;;27.95;9.15;;;;;;;-143.21;78.21;71776.72;5110954;28;20215;-76
2023/09/23 04:13:37;;;;;;;27.35;9.30;;;;;;;-143.21;78.17;71776.72;5111562;28;20215;-78
2023/09/23 04:16:05;;;;;;;26.08;8.93;;;;;;;-143.21;77.98;71772.75;5111460;28;20659;-76
2023/09/23 04:18:32;;;;;;;24.92;8.70;;;;;;;-143.21;78.15;71776.72;5111797;28;20207;-78
2023/09/23 04:21:01;;;;;;;22.45;8.93;;;;;;;-143.21;78.41;71784.66;5111793;28;20204;-77
2023/09/23 04:23:27;;;;;;;27.00;8.80;;;;;;;-143.21;78.22;71794.56;5107836;28;20200;-77
2023/09/23 04:25:54;;;;;;;30.27;9.45;;;;;;;-143.21;78.51;71798.53;5110820;28;20200;-77
2023/09/23 04:28:22;;;;;;;18.73;8.35;;;;;;;-143.21;78.63;71800.53;5109973;28;20211;-77
2023/09/23 04:30:58;;;;;;;21.08;9.68;;;;;;;-143.21;78.44;71800.53;5110522;28;20203;-78
2023/09/23 04:33:27;;;;;;;23.95;10.23;;;;;;;-143.21;78.65;71810.44;5110736;28;20286;-78
2023/09/23 04:35:56;;;;;;;29.10;9.80;;;;;;;-143.21;78.46;71810.44;5110613;28;20786;-78
2023/09/23 04:38:23;;;;;;;36.50;9.43;;;;;;;-143.21;78.70;71822.34;5109514;28;20212;-78
2023/09/23 04:40:50;;;;;;;24.48;9.80;;;;;;;-143.21;78.81;71828.28;5110696;27;20597;-78
2023/09/23 04:43:17;;;;;;;22.45;9.55;;;;;;;-143.21;78.98;71828.28;5110666;28;20591;-78
2023/09/23 04:45:44;;;;;;;30.73;10.40;;;;;;;-143.21;78.37;71812.41;5111184;27;20227;-78
2023/09/23 04:48:14;;;;;;;31.25;10.70;;;;;;;-143.21;78.33;71812.41;5110919;28;20304;-78
2023/09/23 04:50:41;;;;;;;28.33;10.68;;;;;;;-143.21;78.37;71812.41;5111058;28;20196;-78
2023/09/23 04:53:08;;;;;;;26.45;9.75;;;;;;;-143.21;78.42;71808.44;5110477;28;20219;-77
2023/09/23 04:55:35;;;;;;;18.98;9.50;;;;;;;-143.21;78.69;71820.34;5110951;28;20223;-78
2023/09/23 04:58:02;;;;;;;28.42;11.02;;;;;;;-143.21;78.74;71816.38;5110236;28;20196;-78
2023/09/23 05:00:36;;;;;;;22.75;10.60;;;;;;;-143.21;78.53;71804.47;5111151;28;20196;-78
2023/09/23 05:03:03;;;;;;;24.27;10.18;;;;;;;-143.21;78.64;71816.38;5107861;28;20195;-78
2023/09/23 05:05:32;;;;;;;20.27;9.50;;;;;;;-143.21;78.78;71816.38;5111006;28;20203;-78
2023/09/23 05:07:59;;;;;;;29.17;10.20;;;;;;;-143.21;78.85;71804.47;5110266;28;20211;-78
2023/09/23 05:10:28;;;;;;;28.80;10.23;;;;;;;-143.21;78.90;71816.38;5109980;28;20208;-77
2023/09/23 05:12:56;;;;;;;24.00;10.27;;;;;;;-143.21;78.90;71808.44;5110388;28;20203;-76
2023/09/23 05:15:24;;;;;;;23.10;10.75;;;;;;;-143.21;79.04;71796.56;5110374;28;20346;-76
2023/09/23 05:17:52;;;;;;;24.17;11.02;;;;;;;-143.21;78.66;71788.63;5110836;28;20224;-76
2023/09/23 05:20:21;;;;;;;24.77;10.52;;;;;;;-143.21;78.00;71784.66;5110080;28;20715;-76
2023/09/23 05:22:49;;;;;;;21.80;10.30;;;;;;;-143.21;78.38;71792.59;5110335;28;20835;-76
2023/09/23 05:25:17;;;;;;;29.52;11.10;;;;;;;-143.21;77.95;71788.63;5109169;28;20215;-78
2023/09/23 05:27:44;;;;;;;28.52;10.43;;;;;;;-143.21;77.32;71780.69;5110319;28;20196;-79
2023/09/23 05:30:12;;;;;;;23.33;10.75;;;;;;;-143.21;76.75;71766.81;5109534;28;20631;-78
2023/09/23 05:32:39;;;;;;;28.65;10.52;;;;;;;-143.21;76.93;71766.81;5109750;28;20296;-78
2023/09/23 05:35:09;;;;;;;25.27;10.35;;;;;;;-143.21;76.85;71764.81;5109386;28;20227;-78
2023/09/23 05:37:36;;;;;;;35.22;10.75;;;;;;;-143.21;77.47;71768.78;5110379;28;20327;-79
2023/09/23 05:40:23;;;;;;;42.78;11.80;;;;;;;-143.21;77.36;71758.88;5109206;28;20284;-79
2023/09/23 05:42:50;;;;;;;40.90;13.45;;;;;;;-143.21;75.98;71750.94;5109897;28;20208;-78
2023/09/23 05:45:17;;;;;;;43.33;18.92;;;;;;;-143.21;75.72;71748.97;5109076;28;20823;-78
2023/09/23 05:47:45;;;;;;;35.25;18.10;;;;;;;-143.21;75.32;71756.91;5110141;28;20195;-81
2023/09/23 05:50:12;;;;;;;31.02;12.75;;;;;;;-143.21;75.41;71752.94;5109724;28;20212;-78
2023/09/23 05:52:39;;;;;;;23.80;11.00;;;;;;;-143.21;75.54;71756.91;5110242;28;20644;-78
2023/09/23 05:55:08;;;;;;;25.65;12.32;;;;;;;-143.21;74.96;71746.97;5109230;28;20227;-78
2023/09/23 05:57:38;;;;;;;34.58;12.70;;;;;;;-143.21;75.14;71754.91;5109813;28;20203;-78
2023/09/23 06:00:05;;;;;;;32.42;13.32;;;;;;;-143.21;75.31;71758.88;5109813;27;20253;-77
2023/09/23 06:02:32;;;;;;;29.10;12.10;;;;;;;-143.21;75.00;71737.06;5109708;28;20200;-76
2023/09/23 06:05:01;;;;;;;33.65;11.77;;;;;;;-143.21;75.22;71737.06;5109429;28;20580;-76
2023/09/23 06:07:28;;;;;;;30.52;14.07;;;;;;;-143.21;75.72;71743.00;5106251;28;20204;-76
2023/09/23 06:09:55;;;;;;;24.33;11.52;;;;;;;-143.21;76.17;71743.00;5105725;28;20211;-77
2023/09/23 06:12:24;;;;;;;45.10;11.40;;;;;;;-143.21;75.98;71743.00;5109704;28;20284;-77
2023/09/23 06:14:52;;;;;;;30.70;10.73;;;;;;;-143.21;75.72;71731.13;5109215;28;20607;-77
2023/09/23 06:17:20;;;;;;;34.80;10.77;;;;;;;-143.21;75.33;71723.19;5109246;28;20239;-77
2023/09/23 06:19:48;;;;;;;26.05;10.50;;;;;;;-143.21;75.40;71721.22;5109075;28;20212;-77
2023/09/23 06:22:14;;;;;;;32.50;9.80;;;;;;;-143.21;75.05;71715.25;5106196;28;20196;-79
2023/09/23 06:24:41;;;;;;;27.33;10.85;;;;;;;-143.21;74.90;71713.28;5106676;28;20196;-77
2023/09/23 06:27:10;;;;;;;30.02;10.77;;;;;;;-143.21;74.26;71701.38;5106272;28;20693;-77
2023/09/23 06:29:39;;;;;;;31.00;10.82;;;;;;;-143.21;74.02;71689.47;5107593;28;20260;-77
2023/09/23 06:32:05;;;;;;;29.05;10.93;;;;;;;-143.21;74.21;71691.47;5106370;28;20239;-79
2023/09/23 06:34:32;;;;;;;24.90;10.75;;;;;;;-143.21;74.15;71685.50;5107067;28;20199;-77
2023/09/23 06:36:59;;;;;;;30.02;10.57;;;;;;;-143.21;74.06;71685.50;5106911;28;20196;-77
2023/09/23 06:39:28;;;;;;;34.30;11.32;;;;;;;-143.21;73.71;71681.56;5106810;28;20885;-77
2023/09/23 06:41:55;;;;;;;26.70;12.05;;;;;;;-143.21;73.27;71677.59;5105955;28;20207;-79
2023/09/23 06:44:23;;;;;;;33.53;12.07;;;;;;;-143.21;72.94;71673.63;5105304;28;20594;-80
2023/09/23 06:46:59;;;;;;;32.50;11.45;;;;;;;-143.21;73.01;71669.66;5107553;28;20243;-83
2023/09/23 06:49:28;;;;;;;27.98;11.48;;;;;;;-143.21;72.63;71661.72;5108075;28;20223;-82
2023/09/23 06:51:55;;;;;;;24.60;11.32;;;;;;;-143.21;72.38;71647.84;5104624;28;20203;-82
2023/09/23 06:54:26;;;;;;;32.33;11.65;;;;;;;-143.21;72.57;71641.91;5107329;28;20230;-82
2023/09/23 06:56:54;;;;;;;32.50;11.32;;;;;;;-143.21;72.34;71635.94;5108036;28;20689;-83
2023/09/23 06:59:21;;;;;;;29.60;11.32;;;;;;;-143.21;72.40;71631.97;5106775;28;20212;-81
2023/09/23 07:01:48;;;;;;;29.02;12.02;;;;;;;-143.21;71.74;71622.06;5107110;28;20225;-81
2023/09/23 07:04:16;;;;;;;29.98;12.10;;;;;;;-143.21;72.06;71620.09;5104670;28;20778;-81
2023/09/23 07:06:43;;;;;;;29.38;12.00;;;;;;;-143.21;71.81;71618.09;5106680;28;20341;-81
2023/09/23 07:09:10;;;;;;;34.65;11.98;;;;;;;-143.21;71.20;71608.19;5106242;28;20200;-80
2023/09/23 07:11:38;;;;;;;30.52;11.95;;;;;;;-143.21;70.59;71598.28;5107191;28;20203;-81
2023/09/23 07:14:08;;;;;;;29.45;11.60;;;;;;;-143.21;70.37;71592.31;5106582;28;20200;-82
2023/09/23 07:16:36;;;;;;;27.60;10.18;;;;;;;-143.21;69.33;71580.44;5106955;28;20224;-82
2023/09/23 07:19:03;;;;;;;25.73;9.88;;;;;;;-143.21;68.32;71570.53;5106583;28;20211;-82
2023/09/23 07:21:31;;;;;;;22.98;8.75;;;;;;;-143.21;68.23;71570.53;5106921;28;20682;-82
2023/09/23 07:24:01;;;;;;;22.58;7.95;;;;;;;-143.21;68.03;71562.59;5104223;28;20223;-82
2023/09/23 07:26:31;;;;;;;17.83;8.40;;;;;;;-143.21;67.26;71550.69;5103780;28;20199;-82
2023/09/23 07:28:59;;;;;;;28.50;9.35;;;;;;;-143.21;66.35;71530.88;5107014;28;20215;-82
2023/09/23 07:31:26;;;;;;;29.15;8.98;;;;;;;-143.21;66.30;71538.78;5106604;28;20459;-82
2023/09/23 07:33:53;;;;;;;21.42;9.02;;;;;;;-143.21;66.14;71526.91;5106804;28;20203;-82
2023/09/23 07:36:20;;;;;;;25.00;9.20;;;;;;;-143.21;66.51;71513.03;5106962;28;20232;-83
2023/09/23 07:38:51;;;;;;;28.73;9.65;;;;;;;-143.21;66.72;71503.09;5107025;28;20212;-83
2023/09/23 07:41:18;;;;;;;27.20;9.55;;;;;;;-143.21;66.65;71497.16;5107040;28;20219;-84
2023/09/23 07:43:46;;;;;;;22.58;9.57;;;;;;;-143.21;66.24;71485.25;5107014;28;20211;-83
2023/09/23 07:46:16;;;;;;;30.52;9.85;;;;;;;-143.21;66.04;71469.41;5106728;28;20204;-83
2023/09/23 07:48:42;;;;;;;30.00;9.95;;;;;;;-143.21;65.75;71467.41;5107142;28;20206;-83
2023/09/23 07:51:13;;;;;;;33.28;11.15;;;;;;;-143.21;65.67;71453.53;5106415;28;20204;-83
2023/09/23 07:53:42;;;;;;;26.80;11.02;;;;;;;-143.21;65.59;71449.56;5106932;28;20253;-84
2023/09/23 07:56:13;;;;;;;26.05;11.60;;;;;;;-143.21;65.46;71439.66;5106552;28;20395;-84
2023/09/23 07:58:43;;;;;;;28.08;11.70;;;;;;;-143.21;65.15;71437.69;5105950;28;20275;-83
2023/09/23 08:01:10;;;;;;;35.25;11.50;;;;;;;-143.21;65.12;71425.78;5106942;28;20219;-85
2023/09/23 08:03:37;;;;;;;36.60;12.00;;;;;;;-143.21;64.75;71415.88;5107116;28;20289;-84
2023/09/23 08:06:04;;;;;;;29.55;10.77;;;;;;;-143.21;64.41;71407.94;5104975;28;20192;-85
2023/09/23 08:08:40;;;;;;;23.00;9.70;;;;;;;-143.21;64.32;71392.06;5107504;28;20208;-84
2023/09/23 08:11:07;;;;;;;28.35;10.35;;;;;;;-143.21;63.63;71374.22;5106486;28;20208;-83
2023/09/23 08:13:46;;;;;;;30.60;10.18;;;;;;;-143.21;63.41;71360.34;5107543;28;20283;-85
2023/09/23 08:16:16;;;;;;;31.40;10.40;;;;;;;-143.21;62.23;71348.47;5105457;28;20619;-83
2023/09/23 08:18:49;;;;;;;22.20;9.52;;;;;;;-143.21;61.98;71332.59;5107111;28;20232;-84
2023/09/23 08:21:18;;;;;;;27.52;9.30;;;;;;;-143.21;60.94;71290.97;5106367;28;20693;-83
2023/09/23 08:23:45;;;;;;;21.30;9.00;;;;;;;-143.21;60.00;71257.25;5106668;28;20208;-81
2023/09/23 08:26:12;;;;;;;28.38;8.60;;;;;;;-143.21;58.35;71235.44;5106511;28;20207;-82
2023/09/23 08:28:40;;;;;;;26.73;9.15;;;;;;;-143.21;58.50;71209.69;5107170;28;20216;-77
2023/09/23 08:31:08;;;;;;;26.13;9.50;;;;;;;-143.21;58.24;71197.78;5105721;28;20233;-79
2023/09/23 08:33:36;;;;;;;22.73;8.88;;;;;;;-143.21;57.79;71177.97;5105157;28;20243;-81
2023/09/23 08:36:03;;;;;;;20.63;10.20;;;;;;;-143.21;56.91;71162.09;5106354;28;20228;-81
2023/09/23 08:38:29;;;;;;;27.20;10.18;;;;;;;-143.21;55.95;71140.28;5106114;28;20212;-81
2023/09/23 08:40:57;;;;;;;27.67;9.90;;;;;;;-143.21;55.10;71114.53;5107166;28;20203;-82
2023/09/23 08:43:36;;;;;;;29.17;10.10;;;;;;;-143.21;53.67;71098.66;5109402;28;20208;-83
2023/09/23 08:46:05;;;;;;;26.30;9.77;;;;;;;-143.21;54.00;71090.72;5109957;28;20196;-79
2023/09/23 08:48:35;;;;;;;21.80;9.00;;;;;;;-143.21;54.34;71076.84;5108710;28;20655;-82
2023/09/23 08:51:04;;;;;;;27.55;8.77;;;;;;;-143.21;53.88;71061.00;5109665;28;20200;-81
2023/09/23 08:53:33;;;;;;;26.50;8.68;;;;;;;-143.21;52.57;71037.22;5109602;28;20227;-81
2023/09/23 08:56:01;;;;;;;36.53;9.15;;;;;;;-143.21;52.33;71025.31;5109966;28;20230;-81
2023/09/23 08:58:27;;;;;;;29.95;9.43;;;;;;;-143.21;52.34;70997.56;5109137;28;20678;-81
2023/09/23 09:00:54;;;;;;;31.25;9.05;;;;;;;-143.21;51.57;70977.72;5109734;28;20225;-81
2023/09/23 09:03:22;;;;;;;30.95;9.23;;;;;;;-143.21;51.41;70951.97;5108696;28;20882;-82
2023/09/23 09:05:50;;;;;;;25.95;8.80;;;;;;;-143.21;50.57;70928.19;5107336;28;20238;-82
2023/09/23 09:08:18;;;;;;;22.50;8.60;;;;;;;-143.21;50.11;70906.38;5108881;28;22078;-81
2023/09/23 09:10:46;;;;;;;22.00;8.15;;;;;;;-143.21;49.80;70880.59;5109579;28;20268;-81
2023/09/23 09:13:13;;;;;;;25.77;8.00;;;;;;;-143.21;49.35;70850.88;5106519;28;20208;-83
2023/09/23 09:15:40;;;;;;;23.33;7.85;;;;;;;-143.21;48.65;70829.06;5108110;28;20311;-82
2023/09/23 09:18:07;;;;;;;27.63;8.05;;;;;;;-143.21;47.93;70793.38;5107712;28;20200;-82
2023/09/23 09:20:34;;;;;;;21.88;8.30;;;;;;;-143.21;47.54;70765.63;5107749;28;20200;-80
2023/09/23 09:23:02;;;;;;;20.42;8.25;;;;;;;-143.21;46.35;70743.81;5106592;28;20550;-82
2023/09/23 09:25:31;;;;;;;24.08;7.78;;;;;;;-143.21;45.90;70727.97;5107269;28;20212;-81
2023/09/23 09:27:58;;;;;;;21.75;8.52;;;;;;;-143.21;45.02;70694.25;5105919;28;20207;-82
2023/09/23 09:30:25;;;;;;;40.15;8.88;;;;;;;-143.21;45.10;70672.47;5109362;28;20196;-82
2023/09/23 09:32:54;;;;;;;21.83;7.80;;;;;;;-143.21;44.92;70636.78;5108726;28;20228;-82
2023/09/23 09:35:21;;;;;;;32.70;8.70;;;;;;;-143.21;44.59;70605.06;5108648;28;20246;-82
2023/09/23 09:37:49;;;;;;;31.60;8.68;;;;;;;-143.21;43.53;70569.38;5109370;28;20671;-82
2023/09/23 09:40:21;;;;;;;28.67;8.10;;;;;;;-143.21;43.37;70541.63;5108719;28;20223;-83
2023/09/23 09:42:53;;;;;;;27.42;8.32;;;;;;;-143.21;42.62;70502.00;5109082;28;20231;-83
2023/09/23 09:45:21;;;;;;;30.95;8.02;;;;;;;-143.21;41.65;70470.28;5108960;28;20816;-82
2023/09/23 09:47:50;;;;;;;32.70;7.30;;;;;;;-143.21;40.93;70450.47;5109457;28;20818;-82
2023/09/23 09:50:17;;;;;;;24.25;7.40;;;;;;;-143.21;40.90;70436.59;5109069;28;20211;-82
2023/09/23 09:52:45;;;;;;;24.48;7.85;;;;;;;-143.21;40.83;70412.81;5108790;28;20200;-82
2023/09/23 09:55:18;;;;;;;20.67;6.85;;;;;;;-143.21;40.60;70371.19;5108463;28;20726;-82
2023/09/23 09:57:48;;;;;;;30.95;7.93;;;;;;;-143.21;40.45;70339.47;5109257;28;20230;-83
2023/09/23 10:00:27;;;;;;;30.20;8.82;;;;;;;-143.21;39.55;70307.75;5108530;28;20383;-82
2023/09/23 10:02:59;;;;;;;29.65;7.95;;;;;;;-143.21;37.83;70303.78;5108977;28;20211;-82
2023/09/23 10:05:32;;;;;;;32.42;6.68;;;;;;;-143.21;38.65;70272.09;5106454;28;20214;-82
2023/09/23 10:07:59;;;;;;;28.52;7.53;;;;;;;-143.21;38.63;70232.44;5105770;28;20666;-82
2023/09/23 10:10:31;;;;;;;25.67;6.80;;;;;;;-143.21;38.40;70208.66;5109141;28;20214;-82
2023/09/23 10:13:07;;;;;;;23.52;6.82;;;;;;;-143.21;37.24;70174.97;5104532;28;20200;-82
2023/09/23 10:15:36;;;;;;;23.85;6.75;;;;;;;-143.21;37.43;70141.28;5105939;28;20196;-83
2023/09/23 10:18:09;;;;;;;19.98;6.60;;;;;;;-143.21;36.86;70107.59;5107975;28;20231;-82
2023/09/23 10:20:41;;;;;;;23.05;6.20;;;;;;;-143.21;36.35;70073.91;5108356;28;20192;-82
2023/09/23 10:23:08;;;;;;;31.13;7.72;;;;;;;-143.21;35.13;70060.03;5108055;28;20204;-83
2023/09/23 10:25:40;;;;;;;16.40;6.15;;;;;;;-143.21;36.22;70042.19;5108375;28;20196;-82
2023/09/23 10:28:20;;;;;;;27.65;6.30;;;;;;;-143.21;35.97;70022.38;5107572;28;20677;-82
2023/09/23 10:30:57;;;;;;;24.40;7.07;;;;;;;-143.21;34.81;69996.59;5107735;28;20235;-83
2023/09/23 10:33:25;;;;;;;22.05;6.40;;;;;;;-143.21;34.22;69974.81;5107502;28;20227;-83
2023/09/23 10:35:51;;;;;;;41.45;6.35;;;;;;;-143.21;33.90;69949.03;5107673;28;20231;-82
2023/09/23 10:38:21;;;;;;;21.60;6.00;;;;;;;-143.21;33.84;69929.22;5108142;28;20223;-83
2023/09/23 10:40:51;;;;;;;25.95;5.80;;;;;;;-143.21;34.24;69915.34;5108022;28;20248;-84
2023/09/23 10:43:20;;;;;;;23.00;5.85;;;;;;;-143.21;33.64;69885.63;5107787;28;20212;-83
2023/09/23 10:45:48;;;;;;;22.75;5.65;;;;;;;-143.21;33.22;69851.94;5107236;28;20220;-81
2023/09/23 10:48:15;;;;;;;20.80;5.25;;;;;;;-143.21;32.96;69828.16;5106712;28;20223;-83
2023/09/23 10:50:42;;;;;;;33.30;5.88;;;;;;;-143.21;32.56;69804.38;5106813;28;20196;-83
2023/09/23 10:53:09;;;;;;;35.47;6.50;;;;;;;-143.21;32.06;69782.56;5106408;28;20203;-82
2023/09/23 10:55:36;;;;;;;24.05;5.72;;;;;;;-143.21;32.25;69754.81;5107064;28;20701;-82
2023/09/23 10:58:05;;;;;;;31.70;6.18;;;;;;;-143.21;31.59;69746.91;5107697;28;20216;-82
2023/09/23 11:00:34;;;;;;;35.53;6.65;;;;;;;-143.21;30.51;69731.06;5107043;28;20239;-82
2023/09/23 11:03:06;;;;;;;24.75;6.10;;;;;;;-143.21;30.30;69721.13;5107370;28;20204;-82
2023/09/23 11:05:37;;;;;;;24.10;5.43;;;;;;;-143.21;30.81;69695.38;5102738;28;20278;-82
2023/09/23 11:08:05;;;;;;;25.85;6.05;;;;;;;-143.21;29.92;69691.41;5106831;28;20206;-83
2023/09/23 11:10:32;;;;;;;27.55;6.15;;;;;;;-143.21;30.69;69683.50;5107110;28;20714;-82
2023/09/23 11:12:59;;;;;;;20.25;5.80;;;;;;;-143.21;31.18;69659.72;5107315;28;20196;-83